sensor_id;sensor_type;location;lat;lon;timestamp;P1;durP1;ratioP1;P2;durP2;ratioP2
59766;SDS011;46248;58.364;25.582;2022-08-19T00:01:18;19.98;;;12.02;;
59766;SDS011;46248;58.364;25.582;2022-08-19T00:04:49;17.60;;;11.55;;
59766;SDS011;46248;58.364;25.582;2022-08-19T00:08:13;17.52;;;12.00;;
59766;SDS011;46248;58.364;25.582;2022-08-19T00:11:35;16.63;;;11.73;;
59766;SDS011;46248;58.364;25.582;2022-08-19T00:14:59;19.98;;;12.20;;
59766;SDS011;46248;58.364;25.582;2022-08-19T00:18:21;19.60;;;12.52;;
59766;SDS011;46248;58.364;25.582;2022-08-19T00:21:43;19.55;;;11.57;;
59766;SDS011;46248;58.364;25.582;2022-08-19T00:25:05;18.05;;;11.63;;
59766;SDS011;46248;58.364;25.582;2022-08-19T00:28:29;17.85;;;11.45;;
59766;SDS011;46248;58.364;25.582;2022-08-19T00:31:56;17.58;;;12.05;;
59766;SDS011;46248;58.364;25.582;2022-08-19T00:35:19;17.85;;;12.35;;
59766;SDS011;46248;58.364;25.582;2022-08-19T00:38:41;17.48;;;13.40;;
59766;SDS011;46248;58.364;25.582;2022-08-19T00:42:04;19.13;;;13.50;;
59766;SDS011;46248;58.364;25.582;2022-08-19T00:45:27;22.35;;;14.65;;
59766;SDS011;46248;58.364;25.582;2022-08-19T00:48:57;22.02;;;12.50;;
59766;SDS011;46248;58.364;25.582;2022-08-19T00:52:21;20.17;;;13.05;;
59766;SDS011;46248;58.364;25.582;2022-08-19T00:55:49;19.27;;;11.63;;
59766;SDS011;46248;58.364;25.582;2022-08-19T00:59:14;19.33;;;12.15;;
59766;SDS011;46248;58.364;25.582;2022-08-19T01:02:57;16.58;;;11.15;;
59766;SDS011;46248;58.364;25.582;2022-08-19T01:06:21;18.02;;;13.10;;
59766;SDS011;46248;58.364;25.582;2022-08-19T01:09:44;22.90;;;12.57;;
59766;SDS011;46248;58.364;25.582;2022-08-19T01:13:05;18.67;;;13.23;;
59766;SDS011;46248;58.364;25.582;2022-08-19T01:16:28;18.50;;;12.43;;
59766;SDS011;46248;58.364;25.582;2022-08-19T01:19:54;17.50;;;13.27;;
59766;SDS011;46248;58.364;25.582;2022-08-19T01:23:17;15.70;;;12.50;;
59766;SDS011;46248;58.364;25.582;2022-08-19T01:26:40;23.98;;;14.38;;
59766;SDS011;46248;58.364;25.582;2022-08-19T01:30:06;20.88;;;13.43;;
59766;SDS011;46248;58.364;25.582;2022-08-19T01:33:29;18.20;;;12.70;;
59766;SDS011;46248;58.364;25.582;2022-08-19T01:36:52;21.83;;;15.18;;
59766;SDS011;46248;58.364;25.582;2022-08-19T01:40:15;24.48;;;13.00;;
59766;SDS011;46248;58.364;25.582;2022-08-19T01:43:39;22.13;;;13.10;;
59766;SDS011;46248;58.364;25.582;2022-08-19T01:47:21;18.55;;;13.55;;
59766;SDS011;46248;58.364;25.582;2022-08-19T01:50:43;23.35;;;12.77;;
59766;SDS011;46248;58.364;25.582;2022-08-19T01:54:05;19.80;;;12.38;;
59766;SDS011;46248;58.364;25.582;2022-08-19T01:57:29;23.40;;;13.40;;
59766;SDS011;46248;58.364;25.582;2022-08-19T02:00:51;25.15;;;14.35;;
59766;SDS011;46248;58.364;25.582;2022-08-19T02:04:13;17.63;;;12.95;;
59766;SDS011;46248;58.364;25.582;2022-08-19T02:07:36;17.02;;;13.38;;
59766;SDS011;46248;58.364;25.582;2022-08-19T02:11:00;21.42;;;13.10;;
59766;SDS011;46248;58.364;25.582;2022-08-19T02:14:23;17.20;;;12.80;;
59766;SDS011;46248;58.364;25.582;2022-08-19T02:17:46;20.17;;;13.68;;
59766;SDS011;46248;58.364;25.582;2022-08-19T02:21:09;19.55;;;13.15;;
59766;SDS011;46248;58.364;25.582;2022-08-19T02:24:32;19.77;;;12.77;;
59766;SDS011;46248;58.364;25.582;2022-08-19T02:27:54;20.90;;;12.75;;
59766;SDS011;46248;58.364;25.582;2022-08-19T02:31:18;20.70;;;13.50;;
59766;SDS011;46248;58.364;25.582;2022-08-19T02:34:44;18.10;;;13.63;;
59766;SDS011;46248;58.364;25.582;2022-08-19T02:38:06;23.30;;;13.82;;
59766;SDS011;46248;58.364;25.582;2022-08-19T02:41:51;19.02;;;13.73;;
59766;SDS011;46248;58.364;25.582;2022-08-19T02:45:13;20.05;;;13.45;;
59766;SDS011;46248;58.364;25.582;2022-08-19T02:48:37;18.75;;;11.80;;
59766;SDS011;46248;58.364;25.582;2022-08-19T02:51:59;19.67;;;14.07;;
59766;SDS011;46248;58.364;25.582;2022-08-19T02:55:21;21.90;;;14.52;;
59766;SDS011;46248;58.364;25.582;2022-08-19T02:58:43;19.20;;;13.98;;
59766;SDS011;46248;58.364;25.582;2022-08-19T03:02:05;21.95;;;14.65;;
59766;SDS011;46248;58.364;25.582;2022-08-19T03:05:29;20.25;;;12.80;;
59766;SDS011;46248;58.364;25.582;2022-08-19T03:09:11;20.15;;;13.68;;
59766;SDS011;46248;58.364;25.582;2022-08-19T03:12:35;24.25;;;14.35;;
59766;SDS011;46248;58.364;25.582;2022-08-19T03:15:58;21.38;;;15.48;;
59766;SDS011;46248;58.364;25.582;2022-08-19T03:19:20;19.17;;;12.93;;
59766;SDS011;46248;58.364;25.582;2022-08-19T03:22:44;22.83;;;15.88;;
59766;SDS011;46248;58.364;25.582;2022-08-19T03:26:06;29.73;;;14.45;;
59766;SDS011;46248;58.364;25.582;2022-08-19T03:29:37;23.63;;;14.90;;
59766;SDS011;46248;58.364;25.582;2022-08-19T03:33:03;18.77;;;13.57;;
59766;SDS011;46248;58.364;25.582;2022-08-19T03:36:27;19.08;;;13.35;;
59766;SDS011;46248;58.364;25.582;2022-08-19T03:39:50;17.25;;;13.23;;
59766;SDS011;46248;58.364;25.582;2022-08-19T03:43:13;23.40;;;14.27;;
59766;SDS011;46248;58.364;25.582;2022-08-19T03:46:38;23.00;;;14.63;;
59766;SDS011;46248;58.364;25.582;2022-08-19T03:50:03;20.08;;;12.63;;
59766;SDS011;46248;58.364;25.582;2022-08-19T03:53:26;20.10;;;12.80;;
59766;SDS011;46248;58.364;25.582;2022-08-19T03:56:51;18.30;;;12.95;;
59766;SDS011;46248;58.364;25.582;2022-08-19T04:00:14;17.88;;;13.07;;
59766;SDS011;46248;58.364;25.582;2022-08-19T04:03:38;17.77;;;12.25;;
59766;SDS011;46248;58.364;25.582;2022-08-19T04:07:00;17.90;;;12.55;;
59766;SDS011;46248;58.364;25.582;2022-08-19T04:10:22;18.73;;;12.98;;
59766;SDS011;46248;58.364;25.582;2022-08-19T04:13:46;20.17;;;12.95;;
59766;SDS011;46248;58.364;25.582;2022-08-19T04:17:08;19.23;;;12.70;;
59766;SDS011;46248;58.364;25.582;2022-08-19T04:20:31;18.30;;;12.52;;
59766;SDS011;46248;58.364;25.582;2022-08-19T04:23:53;19.60;;;13.43;;
59766;SDS011;46248;58.364;25.582;2022-08-19T04:27:16;15.35;;;12.30;;
59766;SDS011;46248;58.364;25.582;2022-08-19T04:30:40;17.95;;;11.32;;
59766;SDS011;46248;58.364;25.582;2022-08-19T04:34:03;15.98;;;11.65;;
59766;SDS011;46248;58.364;25.582;2022-08-19T04:37:27;17.48;;;11.20;;
59766;SDS011;46248;58.364;25.582;2022-08-19T04:40:54;16.08;;;12.85;;
59766;SDS011;46248;58.364;25.582;2022-08-19T04:44:34;17.77;;;12.35;;
59766;SDS011;46248;58.364;25.582;2022-08-19T04:48:06;15.63;;;11.75;;
59766;SDS011;46248;58.364;25.582;2022-08-19T04:51:45;19.70;;;12.23;;
59766;SDS011;46248;58.364;25.582;2022-08-19T04:55:08;17.92;;;11.32;;
59766;SDS011;46248;58.364;25.582;2022-08-19T04:58:31;18.85;;;11.23;;
59766;SDS011;46248;58.364;25.582;2022-08-19T05:01:53;15.18;;;11.48;;
59766;SDS011;46248;58.364;25.582;2022-08-19T05:05:17;15.20;;;12.15;;
59766;SDS011;46248;58.364;25.582;2022-08-19T05:08:40;12.77;;;11.10;;
59766;SDS011;46248;58.364;25.582;2022-08-19T05:12:03;15.88;;;11.43;;
59766;SDS011;46248;58.364;25.582;2022-08-19T05:15:26;13.82;;;11.00;;
59766;SDS011;46248;58.364;25.582;2022-08-19T05:18:48;18.05;;;11.95;;
59766;SDS011;46248;58.364;25.582;2022-08-19T05:22:29;18.55;;;12.02;;
59766;SDS011;46248;58.364;25.582;2022-08-19T05:25:55;17.08;;;10.82;;
59766;SDS011;46248;58.364;25.582;2022-08-19T05:29:18;19.42;;;13.30;;
59766;SDS011;46248;58.364;25.582;2022-08-19T05:32:42;18.85;;;13.15;;
59766;SDS011;46248;58.364;25.582;2022-08-19T05:36:04;16.75;;;11.13;;
59766;SDS011;46248;58.364;25.582;2022-08-19T05:39:29;21.45;;;12.15;;
59766;SDS011;46248;58.364;25.582;2022-08-19T05:42:53;19.95;;;12.77;;
59766;SDS011;46248;58.364;25.582;2022-08-19T05:46:16;15.63;;;10.73;;
59766;SDS011;46248;58.364;25.582;2022-08-19T05:49:47;15.43;;;10.45;;
59766;SDS011;46248;58.364;25.582;2022-08-19T05:53:10;17.75;;;11.88;;
59766;SDS011;46248;58.364;25.582;2022-08-19T05:56:34;17.13;;;10.10;;
59766;SDS011;46248;58.364;25.582;2022-08-19T05:59:58;24.27;;;13.05;;
59766;SDS011;46248;58.364;25.582;2022-08-19T06:03:21;19.48;;;11.10;;
59766;SDS011;46248;58.364;25.582;2022-08-19T06:06:44;17.73;;;10.18;;
59766;SDS011;46248;58.364;25.582;2022-08-19T06:10:08;17.38;;;10.70;;
59766;SDS011;46248;58.364;25.582;2022-08-19T06:13:33;18.95;;;10.98;;
59766;SDS011;46248;58.364;25.582;2022-08-19T06:16:56;12.93;;;9.85;;
59766;SDS011;46248;58.364;25.582;2022-08-19T06:20:26;16.17;;;9.88;;
59766;SDS011;46248;58.364;25.582;2022-08-19T06:24:09;13.50;;;10.20;;
59766;SDS011;46248;58.364;25.582;2022-08-19T06:27:33;15.52;;;11.65;;
59766;SDS011;46248;58.364;25.582;2022-08-19T06:30:56;13.38;;;11.00;;
59766;SDS011;46248;58.364;25.582;2022-08-19T06:34:18;15.20;;;9.95;;
59766;SDS011;46248;58.364;25.582;2022-08-19T06:37:41;14.32;;;10.05;;
59766;SDS011;46248;58.364;25.582;2022-08-19T06:41:04;16.95;;;9.90;;
59766;SDS011;46248;58.364;25.582;2022-08-19T06:44:28;13.48;;;11.43;;
59766;SDS011;46248;58.364;25.582;2022-08-19T06:48:04;14.38;;;8.98;;
59766;SDS011;46248;58.364;25.582;2022-08-19T06:51:27;15.27;;;10.13;;
59766;SDS011;46248;58.364;25.582;2022-08-19T06:54:50;16.05;;;9.88;;
59766;SDS011;46248;58.364;25.582;2022-08-19T06:58:15;18.90;;;9.95;;
59766;SDS011;46248;58.364;25.582;2022-08-19T07:01:38;13.82;;;9.63;;
59766;SDS011;46248;58.364;25.582;2022-08-19T07:05:04;12.65;;;8.63;;
59766;SDS011;46248;58.364;25.582;2022-08-19T07:08:29;16.13;;;9.07;;
59766;SDS011;46248;58.364;25.582;2022-08-19T07:11:52;12.10;;;8.57;;
59766;SDS011;46248;58.364;25.582;2022-08-19T07:15:15;20.58;;;9.05;;
59766;SDS011;46248;58.364;25.582;2022-08-19T07:18:38;15.52;;;8.77;;
59766;SDS011;46248;58.364;25.582;2022-08-19T07:22:05;15.43;;;9.13;;
59766;SDS011;46248;58.364;25.582;2022-08-19T07:25:32;21.83;;;8.13;;
59766;SDS011;46248;58.364;25.582;2022-08-19T07:28:55;11.57;;;8.65;;
59766;SDS011;46248;58.364;25.582;2022-08-19T07:32:18;13.60;;;8.43;;
59766;SDS011;46248;58.364;25.582;2022-08-19T07:35:40;12.15;;;7.63;;
59766;SDS011;46248;58.364;25.582;2022-08-19T07:39:10;15.27;;;9.30;;
59766;SDS011;46248;58.364;25.582;2022-08-19T07:42:33;17.35;;;8.07;;
59766;SDS011;46248;58.364;25.582;2022-08-19T07:45:55;13.02;;;7.97;;
59766;SDS011;46248;58.364;25.582;2022-08-19T07:49:19;13.75;;;8.23;;
59766;SDS011;46248;58.364;25.582;2022-08-19T07:52:42;11.07;;;7.68;;
59766;SDS011;46248;58.364;25.582;2022-08-19T07:56:09;13.30;;;7.40;;
59766;SDS011;46248;58.364;25.582;2022-08-19T07:59:33;12.55;;;7.50;;
59766;SDS011;46248;58.364;25.582;2022-08-19T08:02:55;12.15;;;7.45;;
59766;SDS011;46248;58.364;25.582;2022-08-19T08:06:17;11.15;;;7.13;;
59766;SDS011;46248;58.364;25.582;2022-08-19T08:09:57;8.32;;;7.03;;
59766;SDS011;46248;58.364;25.582;2022-08-19T08:13:24;14.15;;;7.25;;
59766;SDS011;46248;58.364;25.582;2022-08-19T08:16:46;14.77;;;7.97;;
59766;SDS011;46248;58.364;25.582;2022-08-19T08:20:10;14.18;;;7.57;;
59766;SDS011;46248;58.364;25.582;2022-08-19T08:23:34;9.32;;;7.10;;
59766;SDS011;46248;58.364;25.582;2022-08-19T08:26:59;10.25;;;7.43;;
59766;SDS011;46248;58.364;25.582;2022-08-19T08:30:31;9.50;;;7.13;;
59766;SDS011;46248;58.364;25.582;2022-08-19T08:33:55;17.60;;;8.48;;
59766;SDS011;46248;58.364;25.582;2022-08-19T08:37:17;10.35;;;7.05;;
59766;SDS011;46248;58.364;25.582;2022-08-19T08:40:42;10.02;;;7.38;;
59766;SDS011;46248;58.364;25.582;2022-08-19T08:44:10;16.83;;;8.75;;
59766;SDS011;46248;58.364;25.582;2022-08-19T08:47:40;12.70;;;7.78;;
59766;SDS011;46248;58.364;25.582;2022-08-19T08:51:09;13.35;;;8.48;;
59766;SDS011;46248;58.364;25.582;2022-08-19T08:54:40;14.18;;;7.40;;
59766;SDS011;46248;58.364;25.582;2022-08-19T08:58:15;14.55;;;6.65;;
59766;SDS011;46248;58.364;25.582;2022-08-19T09:01:42;7.40;;;5.90;;
59766;SDS011;46248;58.364;25.582;2022-08-19T09:05:07;7.90;;;6.07;;
59766;SDS011;46248;58.364;25.582;2022-08-19T09:08:38;9.98;;;6.47;;
59766;SDS011;46248;58.364;25.582;2022-08-19T09:12:16;11.20;;;5.82;;
59766;SDS011;46248;58.364;25.582;2022-08-19T09:15:47;8.18;;;5.35;;
59766;SDS011;46248;58.364;25.582;2022-08-19T09:19:14;7.35;;;5.13;;
59766;SDS011;46248;58.364;25.582;2022-08-19T09:22:43;8.95;;;5.72;;
59766;SDS011;46248;58.364;25.582;2022-08-19T09:26:07;11.73;;;5.32;;
59766;SDS011;46248;58.364;25.582;2022-08-19T09:29:31;9.77;;;5.43;;
59766;SDS011;46248;58.364;25.582;2022-08-19T09:32:53;9.20;;;6.03;;
59766;SDS011;46248;58.364;25.582;2022-08-19T09:36:17;6.57;;;5.18;;
59766;SDS011;46248;58.364;25.582;2022-08-19T09:39:56;9.75;;;5.65;;
59766;SDS011;46248;58.364;25.582;2022-08-19T09:43:18;8.73;;;5.20;;
59766;SDS011;46248;58.364;25.582;2022-08-19T09:47:00;10.18;;;5.70;;
59766;SDS011;46248;58.364;25.582;2022-08-19T09:50:24;8.98;;;5.47;;
59766;SDS011;46248;58.364;25.582;2022-08-19T09:53:46;7.30;;;5.35;;
59766;SDS011;46248;58.364;25.582;2022-08-19T09:57:13;9.10;;;6.25;;
59766;SDS011;46248;58.364;25.582;2022-08-19T10:00:38;8.70;;;5.50;;
59766;SDS011;46248;58.364;25.582;2022-08-19T10:04:00;8.73;;;4.88;;
59766;SDS011;46248;58.364;25.582;2022-08-19T10:07:39;10.77;;;5.78;;
59766;SDS011;46248;58.364;25.582;2022-08-19T10:11:02;7.63;;;5.68;;
59766;SDS011;46248;58.364;25.582;2022-08-19T10:14:47;9.60;;;5.07;;
59766;SDS011;46248;58.364;25.582;2022-08-19T10:18:11;8.55;;;5.57;;
59766;SDS011;46248;58.364;25.582;2022-08-19T10:21:34;34.20;;;6.68;;
59766;SDS011;46248;58.364;25.582;2022-08-19T10:24:59;8.10;;;4.80;;
59766;SDS011;46248;58.364;25.582;2022-08-19T10:28:21;10.60;;;5.05;;
59766;SDS011;46248;58.364;25.582;2022-08-19T10:31:46;6.38;;;5.13;;
59766;SDS011;46248;58.364;25.582;2022-08-19T10:35:22;7.75;;;4.60;;
59766;SDS011;46248;58.364;25.582;2022-08-19T10:38:47;7.68;;;4.78;;
59766;SDS011;46248;58.364;25.582;2022-08-19T10:42:16;9.07;;;5.82;;
59766;SDS011;46248;58.364;25.582;2022-08-19T10:45:39;11.13;;;5.75;;
59766;SDS011;46248;58.364;25.582;2022-08-19T10:49:13;6.80;;;5.45;;
59766;SDS011;46248;58.364;25.582;2022-08-19T10:52:36;9.05;;;6.10;;
59766;SDS011;46248;58.364;25.582;2022-08-19T10:56:09;10.07;;;5.95;;
59766;SDS011;46248;58.364;25.582;2022-08-19T10:59:49;11.90;;;7.65;;
59766;SDS011;46248;58.364;25.582;2022-08-19T11:03:11;9.65;;;8.65;;
59766;SDS011;46248;58.364;25.582;2022-08-19T11:06:35;14.00;;;8.95;;
59766;SDS011;46248;58.364;25.582;2022-08-19T11:09:58;12.50;;;8.35;;
59766;SDS011;46248;58.364;25.582;2022-08-19T11:13:20;13.30;;;8.35;;
59766;SDS011;46248;58.364;25.582;2022-08-19T11:16:43;12.95;;;8.43;;
59766;SDS011;46248;58.364;25.582;2022-08-19T11:20:06;13.50;;;9.23;;
59766;SDS011;46248;58.364;25.582;2022-08-19T11:23:30;17.13;;;9.95;;
59766;SDS011;46248;58.364;25.582;2022-08-19T11:26:53;13.52;;;9.25;;
59766;SDS011;46248;58.364;25.582;2022-08-19T11:30:18;12.38;;;8.65;;
59766;SDS011;46248;58.364;25.582;2022-08-19T11:33:41;13.88;;;10.30;;
59766;SDS011;46248;58.364;25.582;2022-08-19T11:37:06;18.98;;;11.52;;
59766;SDS011;46248;58.364;25.582;2022-08-19T11:40:30;20.17;;;13.55;;
59766;SDS011;46248;58.364;25.582;2022-08-19T11:43:53;15.52;;;12.15;;
59766;SDS011;46248;58.364;25.582;2022-08-19T11:47:15;15.85;;;11.93;;
59766;SDS011;46248;58.364;25.582;2022-08-19T11:50:38;16.92;;;12.45;;
59766;SDS011;46248;58.364;25.582;2022-08-19T11:54:04;18.25;;;11.88;;
59766;SDS011;46248;58.364;25.582;2022-08-19T11:57:28;20.98;;;13.57;;
59766;SDS011;46248;58.364;25.582;2022-08-19T12:00:51;17.08;;;11.88;;
59766;SDS011;46248;58.364;25.582;2022-08-19T12:04:13;22.35;;;13.23;;
59766;SDS011;46248;58.364;25.582;2022-08-19T12:07:37;15.98;;;11.50;;
59766;SDS011;46248;58.364;25.582;2022-08-19T12:11:00;14.68;;;11.50;;
59766;SDS011;46248;58.364;25.582;2022-08-19T12:14:23;15.32;;;9.93;;
59766;SDS011;46248;58.364;25.582;2022-08-19T12:17:47;14.02;;;9.85;;
59766;SDS011;46248;58.364;25.582;2022-08-19T12:21:09;14.52;;;10.00;;
59766;SDS011;46248;58.364;25.582;2022-08-19T12:24:33;14.48;;;10.05;;
59766;SDS011;46248;58.364;25.582;2022-08-19T12:27:56;9.60;;;8.25;;
59766;SDS011;46248;58.364;25.582;2022-08-19T12:31:19;13.18;;;10.13;;
59766;SDS011;46248;58.364;25.582;2022-08-19T12:34:42;17.33;;;9.18;;
59766;SDS011;46248;58.364;25.582;2022-08-19T12:38:04;12.32;;;7.88;;
59766;SDS011;46248;58.364;25.582;2022-08-19T12:41:26;16.92;;;9.30;;
59766;SDS011;46248;58.364;25.582;2022-08-19T12:44:49;12.48;;;8.70;;
59766;SDS011;46248;58.364;25.582;2022-08-19T12:48:12;12.82;;;8.90;;
59766;SDS011;46248;58.364;25.582;2022-08-19T12:51:52;10.30;;;7.93;;
59766;SDS011;46248;58.364;25.582;2022-08-19T12:55:15;14.13;;;7.80;;
59766;SDS011;46248;58.364;25.582;2022-08-19T12:58:38;12.52;;;7.80;;
59766;SDS011;46248;58.364;25.582;2022-08-19T13:02:09;14.02;;;8.05;;
59766;SDS011;46248;58.364;25.582;2022-08-19T13:05:33;11.48;;;7.30;;
59766;SDS011;46248;58.364;25.582;2022-08-19T13:08:55;14.27;;;8.27;;
59766;SDS011;46248;58.364;25.582;2022-08-19T13:12:18;9.68;;;6.88;;
59766;SDS011;46248;58.364;25.582;2022-08-19T13:15:44;10.05;;;6.93;;
59766;SDS011;46248;58.364;25.582;2022-08-19T13:19:08;12.45;;;7.53;;
59766;SDS011;46248;58.364;25.582;2022-08-19T13:22:34;12.38;;;6.97;;
59766;SDS011;46248;58.364;25.582;2022-08-19T13:25:57;10.07;;;7.28;;
59766;SDS011;46248;58.364;25.582;2022-08-19T13:29:19;11.63;;;7.60;;
59766;SDS011;46248;58.364;25.582;2022-08-19T13:33:02;7.53;;;6.70;;
59766;SDS011;46248;58.364;25.582;2022-08-19T13:36:35;9.40;;;6.15;;
59766;SDS011;46248;58.364;25.582;2022-08-19T13:40:00;14.10;;;7.38;;
59766;SDS011;46248;58.364;25.582;2022-08-19T13:43:25;8.70;;;6.10;;
59766;SDS011;46248;58.364;25.582;2022-08-19T13:46:48;10.98;;;7.03;;
59766;SDS011;46248;58.364;25.582;2022-08-19T13:50:15;14.35;;;7.75;;
59766;SDS011;46248;58.364;25.582;2022-08-19T13:53:39;9.27;;;6.22;;
59766;SDS011;46248;58.364;25.582;2022-08-19T13:57:08;10.20;;;6.43;;
59766;SDS011;46248;58.364;25.582;2022-08-19T14:00:31;12.02;;;6.88;;
59766;SDS011;46248;58.364;25.582;2022-08-19T14:03:56;11.35;;;6.95;;
59766;SDS011;46248;58.364;25.582;2022-08-19T14:07:19;10.45;;;6.88;;
59766;SDS011;46248;58.364;25.582;2022-08-19T14:10:44;11.45;;;6.65;;
59766;SDS011;46248;58.364;25.582;2022-08-19T14:14:07;9.20;;;6.50;;
59766;SDS011;46248;58.364;25.582;2022-08-19T14:17:36;13.25;;;7.15;;
59766;SDS011;46248;58.364;25.582;2022-08-19T14:20:59;9.73;;;6.50;;
59766;SDS011;46248;58.364;25.582;2022-08-19T14:24:23;8.90;;;7.40;;
59766;SDS011;46248;58.364;25.582;2022-08-19T14:27:45;12.70;;;7.22;;
59766;SDS011;46248;58.364;25.582;2022-08-19T14:31:10;11.02;;;6.70;;
59766;SDS011;46248;58.364;25.582;2022-08-19T14:34:32;9.65;;;5.88;;
59766;SDS011;46248;58.364;25.582;2022-08-19T14:37:57;11.23;;;6.35;;
59766;SDS011;46248;58.364;25.582;2022-08-19T14:41:21;11.82;;;7.38;;
59766;SDS011;46248;58.364;25.582;2022-08-19T14:44:44;7.72;;;6.55;;
59766;SDS011;46248;58.364;25.582;2022-08-19T14:48:08;9.50;;;7.07;;
59766;SDS011;46248;58.364;25.582;2022-08-19T14:51:38;9.95;;;6.45;;
59766;SDS011;46248;58.364;25.582;2022-08-19T14:55:00;10.55;;;6.72;;
59766;SDS011;46248;58.364;25.582;2022-08-19T14:58:26;12.95;;;7.40;;
59766;SDS011;46248;58.364;25.582;2022-08-19T15:01:49;12.63;;;6.35;;
59766;SDS011;46248;58.364;25.582;2022-08-19T15:05:13;10.63;;;7.35;;
59766;SDS011;46248;58.364;25.582;2022-08-19T15:08:37;9.23;;;6.60;;
59766;SDS011;46248;58.364;25.582;2022-08-19T15:12:01;7.88;;;6.88;;
59766;SDS011;46248;58.364;25.582;2022-08-19T15:15:24;9.70;;;6.75;;
59766;SDS011;46248;58.364;25.582;2022-08-19T15:18:48;9.07;;;6.88;;
59766;SDS011;46248;58.364;25.582;2022-08-19T15:22:15;13.35;;;6.97;;
59766;SDS011;46248;58.364;25.582;2022-08-19T15:25:38;9.70;;;7.25;;
59766;SDS011;46248;58.364;25.582;2022-08-19T15:29:02;9.50;;;6.70;;
59766;SDS011;46248;58.364;25.582;2022-08-19T15:32:25;8.77;;;6.30;;
59766;SDS011;46248;58.364;25.582;2022-08-19T15:35:47;11.95;;;7.70;;
59766;SDS011;46248;58.364;25.582;2022-08-19T15:39:12;22.95;;;7.25;;
59766;SDS011;46248;58.364;25.582;2022-08-19T15:42:35;8.98;;;6.90;;
59766;SDS011;46248;58.364;25.582;2022-08-19T15:46:01;14.95;;;8.55;;
59766;SDS011;46248;58.364;25.582;2022-08-19T15:49:23;10.82;;;7.45;;
59766;SDS011;46248;58.364;25.582;2022-08-19T15:52:46;8.55;;;7.20;;
59766;SDS011;46248;58.364;25.582;2022-08-19T15:56:11;13.32;;;7.40;;
59766;SDS011;46248;58.364;25.582;2022-08-19T15:59:36;15.05;;;11.30;;
59766;SDS011;46248;58.364;25.582;2022-08-19T16:03:21;16.55;;;7.90;;
59766;SDS011;46248;58.364;25.582;2022-08-19T16:07:01;13.65;;;7.95;;
59766;SDS011;46248;58.364;25.582;2022-08-19T16:10:24;15.35;;;9.25;;
59766;SDS011;46248;58.364;25.582;2022-08-19T16:13:49;14.60;;;8.82;;
59766;SDS011;46248;58.364;25.582;2022-08-19T16:17:13;11.80;;;8.05;;
59766;SDS011;46248;58.364;25.582;2022-08-19T16:20:35;14.35;;;9.73;;
59766;SDS011;46248;58.364;25.582;2022-08-19T16:23:58;13.90;;;7.82;;
59766;SDS011;46248;58.364;25.582;2022-08-19T16:27:22;16.33;;;9.15;;
59766;SDS011;46248;58.364;25.582;2022-08-19T16:30:45;13.05;;;8.57;;
59766;SDS011;46248;58.364;25.582;2022-08-19T16:34:10;13.73;;;8.43;;
59766;SDS011;46248;58.364;25.582;2022-08-19T16:37:33;12.32;;;9.38;;
59766;SDS011;46248;58.364;25.582;2022-08-19T16:40:55;14.63;;;8.80;;
59766;SDS011;46248;58.364;25.582;2022-08-19T16:44:19;11.80;;;9.07;;
59766;SDS011;46248;58.364;25.582;2022-08-19T16:47:43;11.38;;;9.43;;
59766;SDS011;46248;58.364;25.582;2022-08-19T16:51:05;19.48;;;11.15;;
59766;SDS011;46248;58.364;25.582;2022-08-19T16:54:27;14.80;;;9.20;;
59766;SDS011;46248;58.364;25.582;2022-08-19T16:57:51;15.93;;;10.63;;
59766;SDS011;46248;58.364;25.582;2022-08-19T17:01:13;12.48;;;8.65;;
59766;SDS011;46248;58.364;25.582;2022-08-19T17:04:36;16.60;;;10.50;;
59766;SDS011;46248;58.364;25.582;2022-08-19T17:07:58;14.73;;;9.82;;
59766;SDS011;46248;58.364;25.582;2022-08-19T17:11:21;16.60;;;9.80;;
59766;SDS011;46248;58.364;25.582;2022-08-19T17:14:45;11.30;;;8.48;;
59766;SDS011;46248;58.364;25.582;2022-08-19T17:18:07;15.52;;;9.95;;
59766;SDS011;46248;58.364;25.582;2022-08-19T17:21:32;16.02;;;12.18;;
59766;SDS011;46248;58.364;25.582;2022-08-19T17:24:56;16.33;;;10.88;;
59766;SDS011;46248;58.364;25.582;2022-08-19T17:28:20;12.88;;;9.70;;
59766;SDS011;46248;58.364;25.582;2022-08-19T17:31:46;12.52;;;10.05;;
59766;SDS011;46248;58.364;25.582;2022-08-19T17:35:08;15.35;;;9.55;;
59766;SDS011;46248;58.364;25.582;2022-08-19T17:38:32;12.48;;;9.43;;
59766;SDS011;46248;58.364;25.582;2022-08-19T17:41:56;14.98;;;9.57;;
59766;SDS011;46248;58.364;25.582;2022-08-19T17:45:21;15.10;;;9.70;;
59766;SDS011;46248;58.364;25.582;2022-08-19T17:48:43;18.35;;;9.48;;
59766;SDS011;46248;58.364;25.582;2022-08-19T17:52:11;17.80;;;10.40;;
59766;SDS011;46248;58.364;25.582;2022-08-19T17:55:35;14.13;;;8.95;;
59766;SDS011;46248;58.364;25.582;2022-08-19T17:58:57;10.82;;;8.50;;
59766;SDS011;46248;58.364;25.582;2022-08-19T18:02:21;15.32;;;9.15;;
59766;SDS011;46248;58.364;25.582;2022-08-19T18:05:43;12.00;;;9.18;;
59766;SDS011;46248;58.364;25.582;2022-08-19T18:09:05;11.98;;;9.20;;
59766;SDS011;46248;58.364;25.582;2022-08-19T18:12:29;9.95;;;8.00;;
59766;SDS011;46248;58.364;25.582;2022-08-19T18:15:51;13.15;;;8.85;;
59766;SDS011;46248;58.364;25.582;2022-08-19T18:19:13;16.85;;;9.48;;
59766;SDS011;46248;58.364;25.582;2022-08-19T18:22:36;13.43;;;8.98;;
59766;SDS011;46248;58.364;25.582;2022-08-19T18:25:59;15.23;;;8.25;;
59766;SDS011;46248;58.364;25.582;2022-08-19T18:29:23;10.93;;;8.18;;
59766;SDS011;46248;58.364;25.582;2022-08-19T18:32:45;12.82;;;7.57;;
59766;SDS011;46248;58.364;25.582;2022-08-19T18:36:11;13.30;;;7.55;;
59766;SDS011;46248;58.364;25.582;2022-08-19T18:39:33;14.45;;;7.72;;
59766;SDS011;46248;58.364;25.582;2022-08-19T18:43:13;12.00;;;8.18;;
59766;SDS011;46248;58.364;25.582;2022-08-19T18:46:54;11.25;;;7.65;;
59766;SDS011;46248;58.364;25.582;2022-08-19T18:50:33;15.88;;;7.78;;
59766;SDS011;46248;58.364;25.582;2022-08-19T18:53:57;10.65;;;7.80;;
59766;SDS011;46248;58.364;25.582;2022-08-19T18:57:20;10.02;;;6.60;;
59766;SDS011;46248;58.364;25.582;2022-08-19T19:00:45;7.78;;;6.13;;
59766;SDS011;46248;58.364;25.582;2022-08-19T19:04:08;11.93;;;6.80;;
59766;SDS011;46248;58.364;25.582;2022-08-19T19:07:30;8.65;;;6.22;;
59766;SDS011;46248;58.364;25.582;2022-08-19T19:10:52;11.27;;;5.95;;
59766;SDS011;46248;58.364;25.582;2022-08-19T19:14:16;11.57;;;7.38;;
59766;SDS011;46248;58.364;25.582;2022-08-19T19:18:01;9.05;;;5.55;;
59766;SDS011;46248;58.364;25.582;2022-08-19T19:21:26;11.73;;;5.93;;
59766;SDS011;46248;58.364;25.582;2022-08-19T19:24:53;9.60;;;5.28;;
59766;SDS011;46248;58.364;25.582;2022-08-19T19:28:15;11.25;;;6.15;;
59766;SDS011;46248;58.364;25.582;2022-08-19T19:31:40;14.20;;;5.70;;
59766;SDS011;46248;58.364;25.582;2022-08-19T19:35:03;9.52;;;6.53;;
59766;SDS011;46248;58.364;25.582;2022-08-19T19:38:28;8.18;;;5.93;;
59766;SDS011;46248;58.364;25.582;2022-08-19T19:41:50;7.35;;;5.22;;
59766;SDS011;46248;58.364;25.582;2022-08-19T19:45:12;10.88;;;5.30;;
59766;SDS011;46248;58.364;25.582;2022-08-19T19:48:34;7.82;;;5.20;;
59766;SDS011;46248;58.364;25.582;2022-08-19T19:51:57;7.60;;;5.45;;
59766;SDS011;46248;58.364;25.582;2022-08-19T19:55:21;8.73;;;5.10;;